Time;durP1;ratioP1;P1;durP2;ratioP2;P2;SDS_P1;SDS_P2;PMS_P1;PMS_P2;Temp;Humidity;BMP_temperature;BMP_pressure;BME280_temperature;BME280_humidity;BME280_pressure;Samples;Min_cycle;Max_cycle;Signal;HPM_P1;HPM_P2
2020/12/25 00:01:14;;;;;;;3.35;3.20;;;;;;;12.30;nan;100877.75;4964706;28;97994;-72
2020/12/25 00:03:42;;;;;;;3.63;3.33;;;;;;;12.31;nan;100876.03;4967178;28;97647;-72
2020/12/25 00:06:10;;;;;;;3.90;3.70;;;;;;;12.30;nan;100884.78;4966046;28;101042;-72
2020/12/25 00:08:38;;;;;;;3.95;3.75;;;;;;;12.26;nan;100882.81;4966714;28;97481;-71
2020/12/25 00:11:05;;;;;;;4.38;3.50;;;;;;;12.24;nan;100881.00;4976954;28;97255;-72
2020/12/25 00:13:34;;;;;;;4.10;3.80;;;;;;;12.22;nan;100882.66;4965583;28;96723;-72
2020/12/25 00:16:02;;;;;;;5.50;3.75;;;;;;;12.20;nan;100894.88;4968599;28;96869;-72
2020/12/25 00:18:29;;;;;;;3.97;3.78;;;;;;;12.18;nan;100893.00;4967995;28;98400;-71
2020/12/25 00:20:56;;;;;;;4.38;3.78;;;;;;;12.11;nan;100891.81;4953626;28;96887;-72
2020/12/25 00:23:24;;;;;;;3.92;3.63;;;;;;;12.11;nan;100899.69;4950738;28;96959;-72
2020/12/25 00:25:51;;;;;;;4.13;3.92;;;;;;;12.15;nan;100900.75;4932651;28;100626;-72
2020/12/25 00:28:19;;;;;;;4.32;4.13;;;;;;;12.12;nan;100901.50;4948515;28;97842;-72
2020/12/25 00:30:47;;;;;;;4.05;3.75;;;;;;;12.12;nan;100909.41;4932549;28;96818;-72
2020/12/25 00:33:14;;;;;;;5.50;4.38;;;;;;;12.24;nan;100907.34;4950183;28;97322;-72
2020/12/25 00:35:42;;;;;;;4.25;4.03;;;;;;;12.26;nan;100909.16;4949835;28;98415;-72
2020/12/25 00:38:10;;;;;;;7.03;4.00;;;;;;;12.21;nan;100912.47;4949373;28;98905;-72
2020/12/25 00:40:42;;;;;;;7.07;4.50;;;;;;;12.22;nan;100911.63;4973282;28;96940;-72
2020/12/25 00:43:10;;;;;;;5.18;4.40;;;;;;;12.23;nan;100928.34;4968257;28;96676;-72
2020/12/25 00:45:38;;;;;;;5.63;4.55;;;;;;;12.21;nan;100933.53;4932275;28;101775;-72
2020/12/25 00:48:06;;;;;;;4.82;4.40;;;;;;;12.24;nan;100933.69;4932511;28;97854;-72
2020/12/25 00:50:34;;;;;;;6.20;4.75;;;;;;;12.23;nan;100942.41;4948892;28;97376;-72
2020/12/25 00:53:02;;;;;;;5.32;4.68;;;;;;;12.20;nan;100938.75;4949555;28;97402;-73
2020/12/25 00:55:29;;;;;;;8.85;4.45;;;;;;;12.21;nan;100954.59;4948548;28;97851;-72
2020/12/25 00:57:58;;;;;;;5.32;4.85;;;;;;;12.24;nan;100954.75;4931231;28;98008;-72
2020/12/25 01:00:27;;;;;;;4.68;4.30;;;;;;;12.30;nan;100955.91;4950147;28;96847;-73
2020/12/25 01:02:55;;;;;;;4.93;4.53;;;;;;;12.28;nan;100957.56;4968553;28;97443;-72
2020/12/25 01:05:23;;;;;;;4.88;4.57;;;;;;;12.22;nan;100956.41;4960947;28;101083;-71
2020/12/25 01:07:51;;;;;;;6.88;4.57;;;;;;;12.22;nan;100959.03;4961504;28;99205;-71
2020/12/25 01:10:18;;;;;;;5.60;4.40;;;;;;;12.22;nan;100969.56;4971470;28;97145;-72
2020/12/25 01:12:46;;;;;;;4.50;4.30;;;;;;;12.23;nan;100967.84;4967238;28;97196;-72
2020/12/25 01:15:14;;;;;;;4.78;4.40;;;;;;;12.25;nan;100974.09;4963987;28;99388;-72
2020/12/25 01:17:41;;;;;;;4.45;4.10;;;;;;;12.21;nan;100980.03;4956158;28;98084;-72
2020/12/25 01:20:09;;;;;;;4.18;3.88;;;;;;;12.18;nan;100986.06;4965410;28;96880;-72
2020/12/25 01:22:37;;;;;;;4.22;3.95;;;;;;;12.20;nan;100980.88;4967823;28;96835;-72
2020/12/25 01:25:05;;;;;;;4.03;3.67;;;;;;;12.17;nan;100986.88;4962357;28;96937;-72
2020/12/25 01:27:32;;;;;;;4.13;3.85;;;;;;;12.20;nan;100987.06;4957352;28;99164;-71
2020/12/25 01:30:18;;;;;;;4.07;3.78;;;;;;;12.20;nan;100997.59;4967820;28;97072;-73
2020/12/25 01:33:04;;;;;;;3.47;3.28;;;;;;;12.21;nan;101006.38;4969464;28;96715;-73
2020/12/25 01:35:49;;;;;;;4.47;4.07;;;;;;;12.12;nan;100991.03;4939710;28;97363;-71
2020/12/25 01:38:18;;;;;;;4.20;3.80;;;;;;;12.06;nan;101000.38;4947787;28;99414;-72
2020/12/25 01:40:46;;;;;;;4.90;4.03;;;;;;;12.03;nan;101006.38;4973186;28;96942;-72
2020/12/25 01:43:14;;;;;;;6.05;3.90;;;;;;;12.06;nan;101010.91;4972695;28;96905;-71
2020/12/25 01:45:41;;;;;;;4.22;3.80;;;;;;;12.09;nan;100998.78;4947458;28;101980;-72
2020/12/25 01:48:09;;;;;;;3.67;3.47;;;;;;;12.19;nan;101014.19;4931010;28;97650;-72
2020/12/25 01:50:36;;;;;;;4.38;3.95;;;;;;;12.19;nan;101008.94;4946648;28;96913;-71
2020/12/25 01:53:08;;;;;;;4.25;3.85;;;;;;;12.09;nan;101022.47;4931296;28;98543;-72
2020/12/25 01:55:38;;;;;;;4.05;3.75;;;;;;;12.03;nan;101021.25;4948304;28;97809;-72
2020/12/25 01:58:08;;;;;;;3.83;3.60;;;;;;;11.98;nan;101025.38;4948744;28;101032;-71
2020/12/25 02:00:35;;;;;;;3.65;3.35;;;;;;;11.97;nan;101021.84;4948301;28;97346;-72
2020/12/25 02:03:03;;;;;;;5.10;3.95;;;;;;;11.99;nan;101020.19;4931193;28;96918;-73
2020/12/25 02:05:33;;;;;;;6.65;3.65;;;;;;;11.99;nan;101024.53;4948280;28;99143;-72
2020/12/25 02:08:01;;;;;;;3.83;3.63;;;;;;;11.97;nan;101026.22;4947629;28;97305;-72
2020/12/25 02:10:28;;;;;;;3.67;3.38;;;;;;;11.96;nan;101025.31;4957048;28;96866;-72
2020/12/25 02:12:57;;;;;;;3.55;3.30;;;;;;;11.97;nan;101032.38;4977968;28;97213;-71
2020/12/25 02:15:24;;;;;;;3.45;3.25;;;;;;;11.96;nan;101035.84;4969115;28;99925;-72
2020/12/25 02:17:52;;;;;;;4.68;3.72;;;;;;;11.96;nan;101040.19;4948220;28;99182;-71
2020/12/25 02:20:19;;;;;;;5.93;3.65;;;;;;;11.94;nan;101041.84;4961108;28;97221;-72
2020/12/25 02:23:06;;;;;;;3.65;3.33;;;;;;;11.95;nan;101039.28;4947237;28;97117;-72
2020/12/25 02:25:37;;;;;;;3.45;3.28;;;;;;;11.88;nan;101042.44;4946494;28;97437;-72
2020/12/25 02:28:05;;;;;;;3.35;3.05;;;;;;;11.81;nan;101040.31;4929281;28;97456;-72
2020/12/25 02:30:32;;;;;;;3.55;3.25;;;;;;;11.77;nan;101048.84;4945176;28;97182;-72
2020/12/25 02:32:59;;;;;;;3.45;3.17;;;;;;;11.74;nan;101050.44;4947740;28;96853;-72
2020/12/25 02:35:28;;;;;;;3.60;3.47;;;;;;;11.74;nan;101051.34;4947231;28;98230;-72
2020/12/25 02:37:55;;;;;;;3.42;3.15;;;;;;;11.75;nan;101053.13;4932171;28;99784;-72
2020/12/25 02:40:23;;;;;;;3.65;3.45;;;;;;;11.81;nan;101061.34;4957273;28;97756;-71
2020/12/25 02:42:51;;;;;;;3.47;3.28;;;;;;;11.85;nan;101058.06;4984799;28;97380;-72
2020/12/25 02:45:19;;;;;;;3.40;3.20;;;;;;;11.80;nan;101064.84;4990473;28;97051;-72
2020/12/25 02:47:46;;;;;;;3.88;3.58;;;;;;;11.76;nan;101070.75;4972929;28;98245;-71
2020/12/25 02:50:14;;;;;;;3.35;3.25;;;;;;;11.75;nan;101073.31;4957655;28;97344;-72
2020/12/25 02:52:41;;;;;;;3.50;3.22;;;;;;;11.75;nan;101071.56;4952141;28;97021;-71
2020/12/25 02:55:09;;;;;;;3.67;3.40;;;;;;;11.76;nan;101081.28;4933904;28;98522;-71
2020/12/25 02:57:37;;;;;;;3.45;3.17;;;;;;;11.78;nan;101066.47;4949879;28;96736;-71
2020/12/25 03:00:05;;;;;;;3.78;3.47;;;;;;;11.82;nan;101073.72;4951418;28;96594;-72
2020/12/25 03:02:32;;;;;;;3.53;3.38;;;;;;;11.81;nan;101071.88;4961132;28;97267;-72
2020/12/25 03:04:59;;;;;;;3.95;3.47;;;;;;;11.83;nan;101071.97;4966468;28;98155;-72
2020/12/25 03:07:28;;;;;;;3.25;2.97;;;;;;;11.84;nan;101077.31;4963533;28;100765;-72
2020/12/25 03:09:55;;;;;;;3.28;3.17;;;;;;;11.77;nan;101084.81;4965462;28;97883;-71
2020/12/25 03:12:22;;;;;;;3.20;3.08;;;;;;;11.71;nan;101088.03;4982545;28;97319;-72
2020/12/25 03:15:08;;;;;;;6.68;3.70;;;;;;;11.69;nan;101092.31;4978436;28;96703;-72
2020/12/25 03:17:36;;;;;;;3.20;3.00;;;;;;;11.65;nan;101097.31;4974114;28;98830;-72
2020/12/25 03:20:03;;;;;;;3.10;2.92;;;;;;;11.56;nan;101104.66;4976200;28;97090;-71
2020/12/25 03:22:31;;;;;;;4.22;3.00;;;;;;;11.52;nan;101106.22;4968933;28;97076;-73
2020/12/25 03:24:59;;;;;;;3.30;3.20;;;;;;;11.54;nan;101108.94;4934603;28;101114;-72
2020/12/25 03:27:27;;;;;;;3.58;3.38;;;;;;;11.49;nan;101108.72;4949883;28;97336;-71
2020/12/25 03:29:55;;;;;;;3.75;3.40;;;;;;;11.50;nan;101110.50;4941502;28;97604;-72
2020/12/25 03:32:23;;;;;;;3.28;3.08;;;;;;;11.50;nan;101112.22;4969503;28;97863;-71
2020/12/25 03:34:51;;;;;;;3.30;3.00;;;;;;;11.50;nan;101121.03;4969256;28;98087;-71
2020/12/25 03:37:19;;;;;;;4.05;3.78;;;;;;;11.40;nan;101124.00;4961233;28;97950;-71
2020/12/25 03:39:47;;;;;;;4.00;2.95;;;;;;;11.37;nan;101121.16;4968533;28;97400;-72
2020/12/25 03:42:14;;;;;;;3.33;3.03;;;;;;;11.37;nan;101122.91;4936644;28;97220;-71
2020/12/25 03:44:41;;;;;;;4.00;3.10;;;;;;;11.30;nan;101126.91;4951829;28;97884;-71
2020/12/25 03:47:09;;;;;;;3.50;3.38;;;;;;;11.27;nan;101132.00;4959189;28;97606;-72
2020/12/25 03:49:37;;;;;;;3.28;3.17;;;;;;;11.19;nan;101128.03;4949982;28;97507;-71
2020/12/25 03:52:05;;;;;;;3.75;3.53;;;;;;;11.24;nan;101140.63;4952796;28;96771;-72
2020/12/25 03:54:32;;;;;;;3.38;3.28;;;;;;;11.23;nan;101136.19;4969694;28;98942;-71
2020/12/25 03:56:59;;;;;;;3.50;3.40;;;;;;;11.27;nan;101137.28;4947660;28;98125;-72
2020/12/25 03:59:27;;;;;;;3.75;3.33;;;;;;;11.30;nan;101134.81;4960597;28;97411;-72
2020/12/25 04:02:13;;;;;;;4.38;3.40;;;;;;;11.30;nan;101137.44;4971259;28;96942;-72
2020/12/25 04:04:42;;;;;;;3.50;3.30;;;;;;;11.28;nan;101138.19;4969626;28;98433;-72
2020/12/25 04:07:09;;;;;;;4.25;3.05;;;;;;;11.24;nan;101142.34;4951961;28;98088;-73
2020/12/25 04:09:37;;;;;;;3.63;3.30;;;;;;;11.23;nan;101145.81;4959420;28;97053;-71
2020/12/25 04:12:04;;;;;;;3.42;3.00;;;;;;;11.27;nan;101150.41;4979006;28;97625;-72
2020/12/25 04:14:31;;;;;;;3.47;3.20;;;;;;;11.24;nan;101150.22;4989570;28;99264;-72
2020/12/25 04:16:59;;;;;;;3.20;2.90;;;;;;;11.24;nan;101153.78;4989451;28;97771;-72
2020/12/25 04:19:26;;;;;;;3.97;3.75;;;;;;;11.21;nan;101161.50;4967849;28;98288;-71
2020/12/25 04:21:55;;;;;;;3.30;3.20;;;;;;;11.22;nan;101165.06;4972147;28;97461;-72
2020/12/25 04:24:22;;;;;;;3.55;3.13;;;;;;;11.21;nan;101169.38;4958351;28;97969;-73
2020/12/25 04:26:50;;;;;;;3.47;3.38;;;;;;;11.17;nan;101177.00;4950564;28;98077;-72
2020/12/25 04:29:17;;;;;;;3.33;3.13;;;;;;;11.14;nan;101171.59;4934660;28;97513;-71
2020/12/25 04:31:45;;;;;;;2.92;2.83;;;;;;;11.14;nan;101183.00;4931767;28;97279;-72
2020/12/25 04:34:12;;;;;;;3.08;2.95;;;;;;;11.13;nan;101177.69;4947597;28;98971;-71
2020/12/25 04:36:40;;;;;;;3.33;3.17;;;;;;;11.10;nan;101186.28;4934902;28;98104;-72
2020/12/25 04:39:08;;;;;;;2.70;2.60;;;;;;;11.14;nan;101182.09;4933481;28;97002;-72
2020/12/25 04:41:36;;;;;;;3.30;3.20;;;;;;;11.14;nan;101185.66;4978811;28;97209;-71
2020/12/25 04:44:22;;;;;;;2.97;2.78;;;;;;;11.15;nan;101189.16;4988553;28;97998;-71
2020/12/25 04:46:51;;;;;;;3.17;3.00;;;;;;;11.20;nan;101182.47;4962085;28;97971;-71
2020/12/25 04:49:19;;;;;;;2.95;2.85;;;;;;;11.24;nan;101194.94;4948901;28;96784;-72
2020/12/25 04:51:46;;;;;;;2.80;2.70;;;;;;;11.26;nan;101188.03;4948696;28;96677;-71
2020/12/25 04:54:15;;;;;;;3.10;2.90;;;;;;;11.15;nan;101195.31;4949374;28;99503;-72
2020/12/25 04:56:42;;;;;;;2.92;2.83;;;;;;;11.11;nan;101203.84;4949436;28;97944;-72
2020/12/25 04:59:10;;;;;;;5.55;3.83;;;;;;;11.10;nan;101209.03;4930356;28;96837;-73
2020/12/25 05:01:56;;;;;;;3.22;3.03;;;;;;;11.11;nan;101222.25;4937507;28;96926;-71
2020/12/25 05:04:24;;;;;;;3.22;3.05;;;;;;;11.13;nan;101212.75;4966797;28;98909;-72
2020/12/25 05:06:53;;;;;;;3.22;3.05;;;;;;;11.16;nan;101225.16;4966778;28;97998;-71
2020/12/25 05:09:23;;;;;;;3.72;3.53;;;;;;;11.19;nan;101225.34;4950436;28;96760;-72
2020/12/25 05:11:51;;;;;;;3.10;2.90;;;;;;;11.23;nan;101236.13;5009070;22;99205;-73
2020/12/25 05:14:19;;;;;;;4.25;3.20;;;;;;;11.28;nan;101228.50;5008490;28;98092;-73
2020/12/25 05:16:48;;;;;;;3.10;2.90;;;;;;;11.31;nan;101230.41;5008874;28;97902;-73
2020/12/25 05:19:15;;;;;;;3.22;3.03;;;;;;;11.30;nan;101232.13;4990746;28;97045;-74
2020/12/25 05:21:44;;;;;;;3.22;3.00;;;;;;;11.28;nan;101228.50;5008205;28;96924;-73
2020/12/25 05:24:12;;;;;;;3.25;3.10;;;;;;;11.27;nan;101231.94;5007885;28;99100;-73
2020/12/25 05:26:40;;;;;;;3.28;3.17;;;;;;;11.25;nan;101236.22;5003769;27;99978;-73
2020/12/25 05:29:08;;;;;;;3.65;3.42;;;;;;;11.20;nan;101237.69;5027986;28;96710;-74
2020/12/25 05:31:36;;;;;;;3.13;3.03;;;;;;;11.15;nan;101240.03;5023961;28;97087;-74
2020/12/25 05:34:05;;;;;;;3.15;2.95;;;;;;;11.12;nan;101247.75;5026624;28;98110;-74
2020/12/25 05:36:32;;;;;;;3.00;2.80;;;;;;;11.10;nan;101245.84;5027716;28;97188;-75
2020/12/25 05:39:00;;;;;;;3.00;3.00;;;;;;;11.09;nan;101255.44;5026899;28;96886;-74
2020/12/25 05:41:29;;;;;;;3.15;3.05;;;;;;;11.08;nan;101256.25;5029632;28;96683;-74
2020/12/25 05:44:00;;;;;;;3.50;2.97;;;;;;;11.11;nan;101258.19;5029427;28;97944;-73
2020/12/25 05:46:46;;;;;;;4.75;2.90;;;;;;;11.09;nan;101270.31;5029192;28;96640;-74
2020/12/25 05:49:14;;;;;;;3.35;3.25;;;;;;;11.12;nan;101273.13;5008087;28;96912;-74
2020/12/25 05:51:47;;;;;;;3.15;3.00;;;;;;;11.14;nan;101271.50;5007942;28;98448;-72
2020/12/25 05:54:20;;;;;;;3.15;2.95;;;;;;;11.12;nan;101281.00;5008251;28;97961;-74
2020/12/25 05:56:53;;;;;;;2.85;2.75;;;;;;;11.10;nan;101285.28;5008281;28;99009;-73
2020/12/25 05:59:25;;;;;;;3.00;3.00;;;;;;;11.13;nan;101281.09;5026066;28;97911;-73
2020/12/25 06:01:54;;;;;;;3.33;3.22;;;;;;;11.14;nan;101282.94;5028428;28;97011;-73
2020/12/25 06:04:25;;;;;;;2.92;2.90;;;;;;;11.16;nan;101285.66;5028018;28;97957;-73
2020/12/25 06:07:30;;;;;;;3.00;2.83;;;;;;;11.18;nan;101294.53;5015507;28;97219;-73
2020/12/25 06:09:59;;;;;;;3.03;2.83;;;;;;;11.20;nan;101293.78;5018266;28;96851;-73
2020/12/25 06:12:38;;;;;;;3.20;3.00;;;;;;;11.23;nan;101301.88;5029380;27;96798;-74
2020/12/25 06:15:10;;;;;;;3.35;3.25;;;;;;;11.24;nan;101301.03;5022508;27;98001;-75
2020/12/25 06:17:41;;;;;;;3.40;3.20;;;;;;;11.27;nan;101299.41;5010610;28;97700;-74
2020/12/25 06:20:11;;;;;;;3.00;2.92;;;;;;;11.27;nan;101297.69;5031481;28;96610;-73
2020/12/25 06:22:40;;;;;;;2.80;2.70;;;;;;;11.30;nan;101300.50;5030335;28;97039;-73
2020/12/25 06:25:09;;;;;;;3.28;3.17;;;;;;;11.33;nan;101308.56;5027846;28;97924;-74
2020/12/25 06:27:36;;;;;;;10.38;5.93;;;;;;;11.31;nan;101307.59;5030201;28;97978;-74
2020/12/25 06:30:04;;;;;;;4.45;4.10;;;;;;;11.36;nan;101315.72;5013674;28;96927;-73
2020/12/25 06:32:33;;;;;;;3.25;3.15;;;;;;;11.36;nan;101314.00;5023283;28;96753;-73
2020/12/25 06:35:01;;;;;;;3.55;3.45;;;;;;;11.37;nan;101313.19;5022369;28;99028;-74
2020/12/25 06:37:54;;;;;;;3.00;2.90;;;;;;;11.38;nan;101320.28;5023412;28;99277;-74
2020/12/25 06:40:23;;;;;;;3.40;3.15;;;;;;;11.36;nan;101319.28;5031039;28;96921;-74
2020/12/25 06:42:54;;;;;;;2.72;2.63;;;;;;;11.37;nan;101321.06;5027319;28;96935;-73
2020/12/25 06:45:30;;;;;;;3.08;2.88;;;;;;;11.37;nan;101326.34;5030211;27;98878;-74
2020/12/25 06:48:15;;;;;;;3.22;3.13;;;;;;;11.38;nan;101329.88;5030034;28;97067;-75
2020/12/25 06:50:44;;;;;;;3.20;3.08;;;;;;;11.38;nan;101330.78;5012963;28;96795;-73
2020/12/25 06:53:31;;;;;;;3.10;3.00;;;;;;;11.37;nan;101325.44;5031226;28;96992;-73
2020/12/25 06:56:13;;;;;;;3.10;3.00;;;;;;;11.35;nan;101341.13;5024018;28;97927;-74
2020/12/25 06:58:42;;;;;;;3.42;3.22;;;;;;;11.32;nan;101338.31;5023413;28;97831;-74
2020/12/25 07:01:10;;;;;;;3.10;3.00;;;;;;;11.25;nan;101341.41;5020720;28;96780;-73
2020/12/25 07:03:39;;;;;;;3.35;3.10;;;;;;;11.17;nan;101345.28;5017348;28;97849;-74
2020/12/25 07:06:09;;;;;;;3.15;3.13;;;;;;;11.12;nan;101347.66;5011705;28;99346;-73
2020/12/25 07:08:46;;;;;;;8.50;7.80;;;;;;;11.12;nan;101352.00;5021079;28;97924;-75
2020/12/25 07:11:14;;;;;;;3.25;3.13;;;;;;;11.09;nan;101355.34;5027945;28;97113;-74
2020/12/25 07:13:42;;;;;;;3.28;3.08;;;;;;;11.04;nan;101361.13;5030530;28;97374;-74
2020/12/25 07:16:10;;;;;;;4.38;3.08;;;;;;;11.03;nan;101351.44;5022236;28;98157;-74
2020/12/25 07:18:39;;;;;;;3.10;3.00;;;;;;;11.04;nan;101363.78;5027121;28;97821;-74
2020/12/25 07:21:08;;;;;;;3.42;3.13;;;;;;;11.05;nan;101366.53;5028729;28;96994;-74
2020/12/25 07:23:45;;;;;;;5.15;3.15;;;;;;;11.10;nan;101364.16;5029849;28;97031;-73
2020/12/25 07:26:14;;;;;;;3.67;3.00;;;;;;;11.13;nan;101375.75;5008981;28;99132;-73
2020/12/25 07:28:42;;;;;;;2.78;2.67;;;;;;;11.12;nan;101373.03;5008374;28;98069;-73
2020/12/25 07:31:28;;;;;;;3.45;3.22;;;;;;;11.13;nan;101380.13;5008304;28;96978;-73
2020/12/25 07:33:58;;;;;;;3.08;2.85;;;;;;;11.13;nan;101380.13;5010718;28;96828;-73
2020/12/25 07:36:26;;;;;;;3.25;2.88;;;;;;;11.07;nan;101375.41;5009510;28;100132;-73
2020/12/25 07:39:01;;;;;;;3.17;2.92;;;;;;;11.08;nan;101384.19;5011538;28;99252;-74
2020/12/25 07:41:29;;;;;;;3.13;2.92;;;;;;;11.06;nan;101388.44;5030576;28;97192;-75
2020/12/25 07:43:57;;;;;;;3.45;3.35;;;;;;;11.03;nan;101397.06;5010453;28;96835;-74
2020/12/25 07:46:25;;;;;;;3.60;3.30;;;;;;;10.98;nan;101400.22;5010230;28;97847;-73
2020/12/25 07:48:57;;;;;;;3.53;3.33;;;;;;;10.89;nan;101407.53;4991918;28;98931;-74
2020/12/25 07:51:28;;;;;;;3.97;3.60;;;;;;;10.85;nan;101408.16;4995443;28;97134;-73
2020/12/25 07:53:56;;;;;;;3.80;3.20;;;;;;;10.85;nan;101421.31;5010186;28;96546;-74
2020/12/25 07:56:26;;;;;;;4.00;3.70;;;;;;;10.74;nan;101419.72;5009915;28;99204;-73
2020/12/25 07:58:54;;;;;;;3.65;3.45;;;;;;;10.70;nan;101425.59;4996962;28;98102;-73
2020/12/25 08:01:22;;;;;;;4.43;4.13;;;;;;;10.66;nan;101428.84;5028976;28;97414;-74
2020/12/25 08:03:50;;;;;;;5.30;3.67;;;;;;;10.66;nan;101418.31;5027103;28;97544;-73
2020/12/25 08:06:20;;;;;;;4.22;4.03;;;;;;;10.65;nan;101429.66;5025515;28;96971;-73
2020/12/25 08:08:49;;;;;;;4.30;4.00;;;;;;;10.70;nan;101433.47;5020291;28;99955;-73
2020/12/25 08:11:18;;;;;;;4.47;4.15;;;;;;;10.68;nan;101432.47;5028350;28;96813;-73
2020/12/25 08:13:48;;;;;;;9.60;5.10;;;;;;;10.63;nan;101441.78;5027338;28;97778;-73
2020/12/25 08:16:16;;;;;;;4.65;4.40;;;;;;;10.62;nan;101443.50;5020732;27;97908;-74
2020/12/25 08:18:51;;;;;;;4.45;4.00;;;;;;;10.63;nan;101432.19;5008267;28;97868;-74
2020/12/25 08:21:19;;;;;;;4.45;4.18;;;;;;;10.64;nan;101440.97;5009905;28;97745;-73
2020/12/25 08:23:47;;;;;;;6.80;4.20;;;;;;;10.56;nan;101440.50;5027194;28;97081;-73
2020/12/25 08:26:14;;;;;;;4.53;4.32;;;;;;;10.53;nan;101449.91;5025359;28;98965;-73
2020/12/25 08:28:43;;;;;;;4.90;4.60;;;;;;;10.46;nan;101442.44;5017991;28;98286;-73
2020/12/25 08:31:14;;;;;;;4.97;4.60;;;;;;;10.48;nan;101456.56;5026958;28;96792;-73
2020/12/25 08:34:00;;;;;;;4.60;4.30;;;;;;;10.41;nan;101454.38;5028325;27;97013;-72
2020/12/25 08:36:29;;;;;;;4.93;4.55;;;;;;;10.38;nan;101448.94;5019253;28;97984;-73
2020/12/25 08:39:06;;;;;;;4.45;4.20;;;;;;;10.35;nan;101457.50;5023671;28;97935;-73
2020/12/25 08:41:33;;;;;;;4.75;3.92;;;;;;;10.28;nan;101457.91;5010827;28;96866;-73
2020/12/25 08:44:09;;;;;;;4.35;4.00;;;;;;;10.26;nan;101461.25;5029198;28;96643;-72
2020/12/25 08:46:36;;;;;;;4.57;4.18;;;;;;;10.15;nan;101471.06;5021166;28;96820;-74
2020/12/25 08:49:04;;;;;;;5.53;4.38;;;;;;;10.10;nan;101481.28;5022363;28;97822;-73
2020/12/25 08:51:36;;;;;;;4.60;4.30;;;;;;;10.09;nan;101483.81;5029048;28;97624;-72
2020/12/25 08:54:04;;;;;;;4.97;4.45;;;;;;;10.14;nan;101487.63;5029093;28;97376;-73
2020/12/25 08:56:31;;;;;;;4.32;4.00;;;;;;;10.15;nan;101487.72;5025981;28;97978;-73
2020/12/25 08:58:59;;;;;;;4.38;4.07;;;;;;;10.16;nan;101489.53;5021685;28;98071;-73
2020/12/25 09:01:28;;;;;;;4.90;4.55;;;;;;;10.16;nan;101493.88;5028266;28;97196;-73
2020/12/25 09:03:58;;;;;;;4.03;3.63;;;;;;;10.16;nan;101510.53;5028915;28;97433;-72
2020/12/25 09:06:27;;;;;;;4.40;4.15;;;;;;;10.09;nan;101503.06;5025841;28;98032;-73
2020/12/25 09:08:56;;;;;;;4.00;3.70;;;;;;;10.06;nan;101508.09;5020744;28;96931;-73
2020/12/25 09:11:25;;;;;;;4.07;3.83;;;;;;;10.10;nan;101504.91;5009082;28;96807;-74
2020/12/25 09:13:53;;;;;;;4.45;4.05;;;;;;;10.09;nan;101508.31;5010259;28;96852;-72
2020/12/25 09:16:20;;;;;;;4.05;3.72;;;;;;;10.05;nan;101510.59;5020333;28;98150;-73
2020/12/25 09:18:48;;;;;;;3.95;3.75;;;;;;;9.98;nan;101525.00;5020161;28;97833;-73
2020/12/25 09:21:16;;;;;;;4.35;4.05;;;;;;;9.95;nan;101523.91;5020586;27;99412;-73
2020/12/25 09:23:44;;;;;;;4.45;4.15;;;;;;;9.92;nan;101516.75;5023887;27;97158;-72
2020/12/25 09:26:14;;;;;;;4.00;3.72;;;;;;;9.92;nan;101518.47;5026540;28;98501;-73
2020/12/25 09:28:42;;;;;;;4.35;4.15;;;;;;;9.96;nan;101516.13;5007936;28;99087;-72
2020/12/25 09:31:12;;;;;;;3.70;3.50;;;;;;;10.01;nan;101521.69;5026625;28;97227;-72
2020/12/25 09:33:58;;;;;;;4.03;3.47;;;;;;;10.02;nan;101526.13;5000031;28;97454;-72
2020/12/25 09:36:25;;;;;;;4.18;3.88;;;;;;;10.03;nan;101522.72;5019889;28;102561;-73
2020/12/25 09:38:52;;;;;;;3.60;3.50;;;;;;;10.08;nan;101522.22;5018840;28;97896;-73
2020/12/25 09:41:20;;;;;;;4.57;4.38;;;;;;;10.12;nan;101521.66;5024782;28;97914;-73
2020/12/25 09:43:48;;;;;;;4.55;4.18;;;;;;;10.15;nan;101521.84;5026611;28;97656;-73
2020/12/25 09:46:15;;;;;;;4.45;4.00;;;;;;;10.19;nan;101526.50;5026573;28;98322;-73
2020/12/25 09:48:43;;;;;;;6.85;4.13;;;;;;;10.25;nan;101530.34;5018414;28;98019;-73
2020/12/25 09:51:11;;;;;;;4.57;4.30;;;;;;;10.27;nan;101520.84;5028353;28;97219;-73
2020/12/25 09:53:38;;;;;;;5.25;4.43;;;;;;;10.33;nan;101526.50;5028347;28;97474;-72
2020/12/25 09:56:05;;;;;;;4.85;4.40;;;;;;;10.34;nan;101530.94;5026299;28;97930;-73
2020/12/25 09:58:35;;;;;;;4.60;4.40;;;;;;;10.35;nan;101533.66;5007840;28;99233;-72
2020/12/25 10:01:03;;;;;;;4.85;4.32;;;;;;;10.30;nan;101534.16;5027290;28;96770;-72
2020/12/25 10:03:31;;;;;;;5.38;4.50;;;;;;;10.26;nan;101537.38;5011002;28;96755;-72
2020/12/25 10:05:58;;;;;;;4.95;4.65;;;;;;;10.25;nan;101538.22;5009608;28;98409;-73
2020/12/25 10:08:25;;;;;;;4.95;4.65;;;;;;;10.31;nan;101539.50;5005793;28;97861;-73
2020/12/25 10:10:53;;;;;;;5.88;4.45;;;;;;;10.31;nan;101533.38;5007467;28;96740;-73
2020/12/25 10:13:21;;;;;;;4.88;4.57;;;;;;;10.32;nan;101540.44;5012211;28;97206;-73
2020/12/25 10:15:49;;;;;;;4.72;4.32;;;;;;;10.31;nan;101551.75;5011257;28;97653;-72
2020/12/25 10:18:17;;;;;;;4.40;4.20;;;;;;;10.22;nan;101544.16;4989778;28;96927;-72
2020/12/25 10:21:03;;;;;;;5.80;4.30;;;;;;;10.20;nan;101549.31;5007791;28;97135;-72
2020/12/25 10:23:30;;;;;;;4.10;3.90;;;;;;;10.14;nan;101554.16;5006707;28;97197;-73
2020/12/25 10:25:58;;;;;;;4.60;4.30;;;;;;;10.10;nan;101560.03;5009061;27;97909;-73
2020/12/25 10:28:25;;;;;;;6.70;4.80;;;;;;;10.09;nan;101559.94;5025983;28;97942;-72
2020/12/25 10:30:53;;;;;;;4.97;4.68;;;;;;;10.06;nan;101562.28;5027665;28;98129;-74
2020/12/25 10:33:21;;;;;;;5.07;4.57;;;;;;;10.03;nan;101564.72;5025390;28;96866;-73
2020/12/25 10:35:48;;;;;;;3.80;3.70;;;;;;;10.04;nan;101566.53;5015508;28;99241;-74
2020/12/25 10:38:16;;;;;;;4.60;4.18;;;;;;;10.05;nan;101563.09;4988180;28;98958;-73
2020/12/25 10:40:43;;;;;;;4.78;4.47;;;;;;;10.04;nan;101566.53;5023070;28;97560;-72
2020/12/25 10:43:29;;;;;;;4.45;4.15;;;;;;;10.08;nan;101565.94;5028051;28;96659;-74
2020/12/25 10:45:58;;;;;;;4.78;4.47;;;;;;;10.09;nan;101567.81;5019679;28;99047;-72
2020/12/25 10:48:25;;;;;;;4.75;4.32;;;;;;;10.10;nan;101570.53;4989289;28;98763;-73
2020/12/25 10:50:53;;;;;;;4.15;3.95;;;;;;;10.10;nan;101557.41;5007361;28;96713;-72
2020/12/25 10:53:20;;;;;;;4.05;3.80;;;;;;;10.13;nan;101565.47;4989889;28;97234;-73
2020/12/25 10:55:48;;;;;;;4.68;4.38;;;;;;;10.17;nan;101559.63;5006909;28;97599;-74
2020/12/25 10:58:15;;;;;;;3.92;3.80;;;;;;;10.24;nan;101570.53;4990283;28;98005;-73
2020/12/25 11:00:43;;;;;;;4.35;3.95;;;;;;;10.29;nan;101569.13;5010831;28;97414;-73
2020/12/25 11:03:11;;;;;;;4.07;3.65;;;;;;;10.35;nan;101573.06;5011010;28;96868;-73
2020/12/25 11:05:38;;;;;;;4.25;4.00;;;;;;;10.35;nan;101569.50;5010874;28;97809;-72
2020/12/25 11:08:06;;;;;;;5.00;3.88;;;;;;;10.41;nan;101573.47;5009536;28;97898;-73
2020/12/25 11:10:47;;;;;;;3.45;3.35;;;;;;;10.46;nan;101564.16;5027662;28;98198;-73
2020/12/25 11:13:14;;;;;;;4.90;4.18;;;;;;;10.48;nan;101569.53;5013174;28;96723;-72
2020/12/25 11:15:42;;;;;;;4.38;4.00;;;;;;;10.50;nan;101565.28;5030514;28;98059;-73
2020/12/25 11:18:09;;;;;;;4.68;4.30;;;;;;;10.45;nan;101566.69;5030269;28;98064;-72
2020/12/25 11:20:37;;;;;;;5.07;4.03;;;;;;;10.43;nan;101563.97;5023431;28;97902;-73
2020/12/25 11:23:05;;;;;;;4.85;4.55;;;;;;;10.43;nan;101563.06;5010709;28;97266;-72
2020/12/25 11:25:32;;;;;;;4.70;4.28;;;;;;;10.39;nan;101569.81;5010566;28;99180;-73
2020/12/25 11:28:00;;;;;;;5.30;4.85;;;;;;;10.29;nan;101564.78;5009826;28;97658;-72
2020/12/25 11:30:28;;;;;;;4.65;4.35;;;;;;;10.25;nan;101561.84;5008560;27;96826;-72
2020/12/25 11:32:55;;;;;;;5.65;5.13;;;;;;;10.24;nan;101560.03;5005642;28;97351;-73
2020/12/25 11:35:23;;;;;;;4.90;4.50;;;;;;;10.27;nan;101561.16;5029757;28;98997;-73
2020/12/25 11:37:51;;;;;;;5.60;5.10;;;;;;;10.28;nan;101567.28;5025254;28;99140;-73
2020/12/25 11:40:19;;;;;;;5.60;5.20;;;;;;;10.27;nan;101557.59;5021375;28;97125;-73
2020/12/25 11:42:47;;;;;;;5.43;4.95;;;;;;;10.28;nan;101555.06;5010532;28;97512;-73
2020/12/25 11:45:14;;;;;;;4.60;4.40;;;;;;;10.29;nan;101559.53;5028863;28;98255;-74
2020/12/25 11:47:42;;;;;;;6.43;5.32;;;;;;;10.33;nan;101560.66;5008687;28;99233;-73
2020/12/25 11:50:09;;;;;;;5.32;4.82;;;;;;;10.32;nan;101558.81;5009117;28;97295;-72
2020/12/25 11:52:37;;;;;;;7.95;5.93;;;;;;;10.20;nan;101559.81;5009590;28;97072;-73